No particular awareness of the weather is required.    There are no Weather-warnings


Meteo18 Weather Cam more information Meteo18 Weather Cam


Thunder radar more information blitzortung!


Rain radar more information rain snow radar


Visit our other weather sites:

Template documentation
and downloads

And another site



Weather Underground History page Text

Daily Summary for July 2, 2017 Units:  English    Metric   Both
« Previous Day
Next Day »
Daily Weekly Monthly Yearly Custom
  High: Low: Average:
Temperature: TemperatureC °F 13.4 °F 15.2 °F
Dew Point: DewpointC °F 12.2 °F 13.8 °F
Humidity: Humidity % 83 % 91 %
Wind Speed: WindSpeedKMH mph 0.0 mph 4.4 mph
Wind Gust: WindSpeedGustKMH mph - -
Wind:- - WSW
Pressure: PressurehPa in 1022.9 in -
Precipitation: 0.3 in    
Historical Graphs
 
 
Tabular Data for July 2, 2017
Time Temperature Dew Point Pressure Wind Wind Speed Wind Gust Humidity Rainfall Rate (Hourly)
TemperatureC °F DewpointC °F PressurehPa in Calm     Humidity % HourlyPrecipMM in
00:02 14.8 °F 13.8 °F 1022.9 in Calm   3.2 mph 94 % 0.0 in
00:07 14.8 °F 14.0 °F 1022.9 in SSE 1.6 mph 3.2 mph 95 % 0.0 in
00:12 14.8 °F 14.0 °F 1022.9 in Calm   3.2 mph 95 % 0.0 in
00:17 14.8 °F 14.0 °F 1022.9 in WSW 1.6 mph 3.2 mph 95 % 0.0 in
00:22 14.7 °F 13.9 °F 1022.9 in Calm   3.2 mph 95 % 0.0 in
00:27 14.8 °F 14.2 °F 1022.9 in West 1.6 mph 3.2 mph 96 % 0.0 in
00:32 14.8 °F 14.0 °F 1022.9 in WNW 3.2 mph 3.2 mph 95 % 0.0 in
00:37 14.7 °F 13.9 °F 1022.9 in WNW 1.6 mph 4.8 mph 95 % 0.0 in
00:42 14.6 °F 13.8 °F 1022.9 in Calm   4.8 mph 95 % 0.0 in
00:52 14.6 °F 14.0 °F 1022.9 in Calm   4.8 mph 96 % 0.0 in
00:57 14.7 °F 14.1 °F 1022.9 in Calm   1.6 mph 96 % 0.0 in
01:02 14.7 °F 14.1 °F 1022.9 in Calm     96 % 0.0 in
01:07 14.7 °F 14.1 °F 1022.9 in Calm     96 % 0.0 in
01:12 14.6 °F 13.8 °F 1022.9 in WNW 3.2 mph   95 % 0.0 in
01:22 14.8 °F 14.2 °F 1023.2 in SW 1.6 mph 3.2 mph 96 % 0.0 in
01:32 14.8 °F 14.0 °F 1022.9 in West 1.6 mph 6.4 mph 95 % 0.0 in
01:37 14.9 °F 14.1 °F 1022.9 in Calm   6.4 mph 95 % 0.0 in
01:42 14.9 °F 14.1 °F 1022.9 in Calm   6.4 mph 95 % 0.0 in
01:47 14.9 °F 14.1 °F 1023.2 in Calm   6.4 mph 95 % 0.0 in
01:52 14.9 °F 14.1 °F 1023.2 in WNW 1.6 mph 3.2 mph 95 % 0.0 in
01:57 14.9 °F 14.1 °F 1023.2 in Calm   4.8 mph 95 % 0.0 in
02:02 15.0 °F 14.2 °F 1023.2 in West 1.6 mph 4.8 mph 95 % 0.0 in
02:07 15.1 °F 14.1 °F 1023.2 in WNW 4.8 mph 4.8 mph 94 % 0.0 in
02:12 15.1 °F 14.1 °F 1023.2 in NW 3.2 mph 12.9 mph 94 % 0.0 in
02:17 15.1 °F 14.1 °F 1023.2 in NNE 3.2 mph 12.9 mph 94 % 0.0 in
02:22 15.2 °F 14.1 °F 1023.2 in Calm   12.9 mph 93 % 0.0 in
02:32 15.2 °F 14.1 °F 1023.2 in Calm   11.3 mph 93 % 0.0 in
02:37 15.1 °F 14.0 °F 1023.2 in WNW 3.2 mph 8.0 mph 93 % 0.0 in
02:42 15.1 °F 14.0 °F 1023.2 in WSW 3.2 mph 9.7 mph 93 % 0.0 in
02:47 15.1 °F 14.0 °F 1023.2 in West 3.2 mph 9.7 mph 93 % 0.0 in
02:52 15.1 °F 14.0 °F 1023.2 in WSW 3.2 mph 9.7 mph 93 % 0.0 in
02:57 15.0 °F 13.9 °F 1023.2 in WNW 8.0 mph 8.0 mph 93 % 0.0 in
03:02 14.9 °F 13.8 °F 1023.2 in WNW 3.2 mph 12.9 mph 93 % 0.0 in
03:07 14.9 °F 13.8 °F 1023.2 in WNW 1.6 mph 12.9 mph 93 % 0.0 in
03:12 14.8 °F 13.8 °F 1023.2 in Calm   12.9 mph 94 % 0.0 in
03:17 14.8 °F 13.8 °F 1023.2 in Calm   6.4 mph 94 % 0.0 in
03:22 14.8 °F 13.8 °F 1023.2 in WNW 3.2 mph 4.8 mph 94 % 0.0 in
03:27 14.7 °F 13.7 °F 1023.2 in West 1.6 mph 3.2 mph 94 % 0.0 in
03:32 14.7 °F 13.7 °F 1023.2 in West 1.6 mph 6.4 mph 94 % 0.0 in
03:37 14.7 °F 13.7 °F 1023.2 in Calm   6.4 mph 94 % 0.0 in
03:42 14.7 °F 13.7 °F 1023.2 in Calm   4.8 mph 94 % 0.0 in
03:47 14.7 °F 13.7 °F 1023.6 in WNW 4.8 mph 4.8 mph 94 % 0.0 in
03:52 14.7 °F 13.9 °F 1023.2 in WNW 3.2 mph 6.4 mph 95 % 0.0 in
03:57 14.7 °F 13.7 °F 1023.2 in WNW 3.2 mph 6.4 mph 94 % 0.0 in
04:02 14.7 °F 13.7 °F 1023.2 in Calm   6.4 mph 94 % 0.0 in
04:07 14.7 °F 13.7 °F 1023.2 in NW 1.6 mph 6.4 mph 94 % 0.0 in
04:17 14.7 °F 13.7 °F 1023.6 in West 1.6 mph 8.0 mph 94 % 0.0 in
04:22 14.7 °F 13.7 °F 1023.6 in Calm   8.0 mph 94 % 0.0 in
04:32 14.6 °F 13.6 °F 1023.6 in WNW 1.6 mph 9.7 mph 94 % 0.0 in
04:37 14.6 °F 13.6 °F 1023.6 in North 1.6 mph 9.7 mph 94 % 0.0 in
04:42 14.6 °F 13.6 °F 1023.6 in Calm   9.7 mph 94 % 0.0 in
04:47 14.6 °F 13.6 °F 1023.6 in Calm   6.4 mph 94 % 0.0 in
04:52 14.6 °F 13.6 °F 1023.6 in Calm   6.4 mph 94 % 0.0 in
04:57 14.5 °F 13.5 °F 1023.6 in SW 3.2 mph 3.2 mph 94 % 0.0 in
05:02 14.5 °F 13.5 °F 1023.6 in West 3.2 mph 6.4 mph 94 % 0.0 in
05:07 14.4 °F 13.4 °F 1023.6 in WSW 6.4 mph 11.3 mph 94 % 0.0 in
05:12 14.5 °F 13.5 °F 1023.6 in West 4.8 mph 12.9 mph 94 % 0.0 in
05:17 14.5 °F 13.5 °F 1023.9 in WNW 4.8 mph 12.9 mph 94 % 0.0 in
05:22 14.4 °F 13.4 °F 1023.9 in WNW 3.2 mph 12.9 mph 94 % 0.0 in
05:27 14.4 °F 13.4 °F 1023.9 in West 4.8 mph 9.7 mph 94 % 0.0 in
05:32 14.3 °F 13.3 °F 1023.6 in WNW 4.8 mph 8.0 mph 94 % 0.0 in
05:37 14.2 °F 13.2 °F 1023.9 in WNW 3.2 mph 8.0 mph 94 % 0.0 in
05:42 14.1 °F 13.1 °F 1023.9 in NW 3.2 mph 11.3 mph 94 % 0.0 in
05:47 14.0 °F 13.0 °F 1023.9 in WNW 9.7 mph 11.3 mph 94 % 0.0 in
05:52 13.9 °F 12.9 °F 1023.9 in West 3.2 mph 14.5 mph 94 % 0.0 in
05:57 13.8 °F 12.9 °F 1024.3 in WNW 8.0 mph 14.5 mph 94 % 0.0 in
06:02 13.8 °F 12.9 °F 1024.3 in WNW 1.6 mph 14.5 mph 94 % 0.0 in
06:07 13.7 °F 12.8 °F 1024.3 in WNW 1.6 mph 12.9 mph 94 % 0.0 in
06:12 13.7 °F 12.8 °F 1024.3 in West 1.6 mph 12.9 mph 94 % 0.0 in
06:17 13.6 °F 12.7 °F 1024.3 in WSW 4.8 mph 8.0 mph 94 % 0.0 in
06:22 13.4 °F 12.5 °F 1024.3 in WNW 6.4 mph 9.7 mph 94 % 0.0 in
06:32 13.4 °F 12.5 °F 1024.3 in WNW 1.6 mph 9.7 mph 94 % 0.0 in
06:37 13.4 °F 12.5 °F 1024.3 in Calm   8.0 mph 94 % 0.0 in
06:42 13.4 °F 12.5 °F 1024.3 in Calm   8.0 mph 94 % 0.0 in
06:47 13.4 °F 12.5 °F 1024.3 in WSW 1.6 mph 1.6 mph 94 % 0.0 in
06:52 13.4 °F 12.3 °F 1024.3 in Calm   4.8 mph 93 % 0.0 in
07:02 13.6 °F 12.5 °F 1024.3 in Calm   4.8 mph 93 % 0.0 in
07:12 13.8 °F 12.5 °F 1024.3 in Calm   1.6 mph 92 % 0.0 in
07:17 13.9 °F 12.6 °F 1024.3 in Calm   1.6 mph 92 % 0.0 in
07:22 13.9 °F 12.5 °F 1024.3 in Calm   1.6 mph 91 % 0.0 in
07:27 13.9 °F 12.5 °F 1024.3 in Calm   1.6 mph 91 % 0.0 in
07:32 14.1 °F 12.8 °F 1024.6 in Calm     92 % 0.0 in
07:37 14.1 °F 12.5 °F 1024.6 in Calm     90 % 0.0 in
07:42 14.1 °F 12.5 °F 1024.3 in Calm   4.8 mph 90 % 0.0 in
07:47 14.3 °F 12.5 °F 1024.6 in Calm   4.8 mph 89 % 0.0 in
07:52 14.3 °F 12.5 °F 1024.6 in Calm   4.8 mph 89 % 0.0 in
07:57 14.4 °F 12.4 °F 1024.6 in Calm   3.2 mph 88 % 0.0 in
08:02 14.7 °F 12.9 °F 1024.6 in Calm   3.2 mph 89 % 0.0 in
08:07 15.0 °F 12.9 °F 1024.6 in Calm   3.2 mph 87 % 0.0 in
08:12 15.1 °F 12.8 °F 1024.6 in Calm   4.8 mph 86 % 0.0 in
08:17 15.4 °F 13.2 °F 1024.6 in SSW 3.2 mph 4.8 mph 87 % 0.0 in
08:22 15.4 °F 13.1 °F 1024.6 in WSW 8.0 mph 8.0 mph 86 % 0.0 in
08:27 15.3 °F 13.0 °F 1024.6 in West 6.4 mph 9.7 mph 86 % 0.0 in
08:32 15.1 °F 12.2 °F 1024.6 in West 8.0 mph 9.7 mph 83 % 0.0 in
08:37 15.0 °F 12.5 °F 1024.6 in WSW 4.8 mph 11.3 mph 85 % 0.0 in
08:42 14.8 °F 12.3 °F 1024.6 in WSW 9.7 mph 11.3 mph 85 % 0.0 in
08:47 14.8 °F 12.5 °F 1024.6 in West 4.8 mph 11.3 mph 86 % 0.0 in
08:52 14.7 °F 12.4 °F 1024.9 in SSW 6.4 mph 11.3 mph 86 % 0.0 in
08:57 14.6 °F 12.3 °F 1024.9 in WSW 11.3 mph 12.9 mph 86 % 0.0 in
09:02 14.5 °F 12.2 °F 1024.9 in SW 6.4 mph 12.9 mph 86 % 0.0 in
09:12 14.6 °F 12.6 °F 1024.9 in SW 6.4 mph 11.3 mph 88 % 0.0 in
09:17 14.4 °F 12.4 °F 1024.9 in WSW 8.0 mph 11.3 mph 88 % 0.0 in
09:22 14.3 °F 12.5 °F 1024.9 in SW 8.0 mph 12.9 mph 89 % 0.0 in
09:27 14.3 °F 12.5 °F 1024.9 in WSW 9.7 mph 12.9 mph 89 % 0.0 in
09:32 14.2 °F 12.2 °F 1024.9 in SSE 3.2 mph 14.5 mph 88 % 0.0 in
09:42 14.4 °F 12.4 °F 1024.9 in SW 8.0 mph 14.5 mph 88 % 0.0 in
09:47 14.4 °F 12.3 °F 1024.9 in SW 3.2 mph 12.9 mph 87 % 0.0 in
09:52 14.6 °F 12.6 °F 1024.9 in WSW 8.0 mph 12.9 mph 88 % 0.0 in
09:57 14.6 °F 12.5 °F 1024.9 in WNW 4.8 mph 12.9 mph 87 % 0.0 in
10:02 14.7 °F 12.6 °F 1024.9 in WSW 4.8 mph 16.1 mph 87 % 0.0 in
10:12 14.7 °F 12.6 °F 1025.3 in WSW 12.9 mph 16.1 mph 87 % 0.0 in
10:17 14.7 °F 12.6 °F 1025.3 in WSW 6.4 mph 14.5 mph 87 % 0.0 in
10:22 14.6 °F 12.5 °F 1025.3 in SW 11.3 mph 12.9 mph 87 % 0.0 in
10:27 14.5 °F 12.4 °F 1025.3 in WSW 6.4 mph 12.9 mph 87 % 0.0 in
10:32 14.4 °F 12.3 °F 1025.3 in WSW 11.3 mph 16.1 mph 87 % 0.0 in
10:37 14.5 °F 12.5 °F 1025.3 in SW 1.6 mph 16.1 mph 88 % 0.0 in
10:42 14.6 °F 12.5 °F 1025.3 in SSW 8.0 mph 16.1 mph 87 % 0.0 in
10:47 14.6 °F 12.5 °F 1025.3 in West 3.2 mph 12.9 mph 87 % 0.0 in
10:52 14.6 °F 12.6 °F 1025.3 in West 4.8 mph 12.9 mph 88 % 0.0 in
10:57 14.6 °F 12.6 °F 1025.3 in WSW 4.8 mph 12.9 mph 88 % 0.0 in
11:02 14.7 °F 12.7 °F 1025.3 in West 3.2 mph 12.9 mph 88 % 0.0 in
11:12 14.4 °F 12.3 °F 1025.6 in West 4.8 mph 16.1 mph 87 % 0.3 in
11:17 14.4 °F 12.4 °F 1025.6 in West 6.4 mph 16.1 mph 88 % 0.3 in
11:22 14.3 °F 12.3 °F 1025.6 in West 4.8 mph 16.1 mph 88 % 0.3 in
11:32 14.3 °F 12.5 °F 1025.6 in WSW 6.4 mph 11.3 mph 89 % 0.3 in
11:37 14.3 °F 12.5 °F 1025.6 in WSW 4.8 mph 11.3 mph 89 % 0.3 in
11:42 14.3 °F 12.7 °F 1025.6 in WSW 4.8 mph 11.3 mph 90 % 0.3 in
11:47 14.2 °F 12.4 °F 1025.6 in WNW 8.0 mph 14.5 mph 89 % 0.3 in
11:52 14.2 °F 12.4 °F 1025.6 in WSW 3.2 mph 14.5 mph 89 % 0.3 in
11:57 14.3 °F 12.7 °F 1025.6 in WSW 3.2 mph 14.5 mph 90 % 0.3 in
12:02 14.3 °F 12.7 °F 1025.6 in SSW 3.2 mph 11.3 mph 90 % 0.3 in
12:07 14.4 °F 12.8 °F 1025.6 in WSW 6.4 mph 11.3 mph 90 % 0.3 in
12:12 14.4 °F 12.8 °F 1025.6 in WSW 1.6 mph 11.3 mph 90 % 0.0 in
12:17 14.6 °F 13.0 °F 1025.6 in SW 8.0 mph 11.3 mph 90 % 0.0 in
12:22 14.5 °F 12.9 °F 1025.6 in South 9.7 mph 14.5 mph 90 % 0.0 in
12:32 14.4 °F 12.8 °F 1025.6 in SW 3.2 mph 14.5 mph 90 % 0.0 in
12:42 14.4 °F 12.9 °F 1025.6 in SW 11.3 mph 16.1 mph 91 % 0.0 in
12:47 14.4 °F 13.1 °F 1025.6 in SW 16.1 mph 16.1 mph 92 % 0.0 in
12:57 14.6 °F 13.3 °F 1025.6 in SW 6.4 mph 16.1 mph 92 % 0.0 in
13:02 14.7 °F 13.4 °F 1025.6 in West 12.9 mph 16.1 mph 92 % 0.0 in
13:07 14.8 °F 13.5 °F 1025.6 in WSW 9.7 mph 12.9 mph 92 % 0.0 in
13:12 14.9 °F 13.6 °F 1025.6 in SSW 1.6 mph 12.9 mph 92 % 0.0 in
13:17 14.8 °F 13.5 °F 1025.6 in SSW 8.0 mph 16.1 mph 92 % 0.0 in
13:22 14.8 °F 13.5 °F 1025.6 in WSW 4.8 mph 16.1 mph 92 % 0.0 in
13:27 14.9 °F 13.6 °F 1025.6 in SW 12.9 mph 16.1 mph 92 % 0.0 in
13:32 14.9 °F 13.6 °F 1025.6 in SW 8.0 mph 16.1 mph 92 % 0.0 in
13:37 14.9 °F 13.6 °F 1025.6 in West 4.8 mph 14.5 mph 92 % 0.0 in
13:42 15.0 °F 13.7 °F 1025.3 in West 8.0 mph 12.9 mph 92 % 0.0 in
13:47 15.1 °F 13.8 °F 1025.3 in SW 11.3 mph 12.9 mph 92 % 0.0 in
13:52 15.3 °F 14.0 °F 1025.3 in SW 3.2 mph 12.9 mph 92 % 0.0 in
13:57 15.2 °F 13.7 °F 1025.3 in WSW 8.0 mph 16.1 mph 91 % 0.0 in
14:02 15.2 °F 13.9 °F 1025.3 in SW 6.4 mph 16.1 mph 92 % 0.0 in
14:07 15.3 °F 14.0 °F 1025.3 in SW 8.0 mph 16.1 mph 92 % 0.0 in
14:12 15.4 °F 14.1 °F 1025.3 in SW 8.0 mph 16.1 mph 92 % 0.0 in
14:17 15.4 °F 13.9 °F 1025.3 in West 16.1 mph 16.1 mph 91 % 0.0 in
14:22 15.3 °F 13.8 °F 1025.3 in SW 8.0 mph 16.1 mph 91 % 0.0 in
14:32 15.3 °F 13.8 °F 1025.6 in West 9.7 mph 19.3 mph 91 % 0.0 in
14:37 15.3 °F 13.8 °F 1025.6 in WNW 9.7 mph 19.3 mph 91 % 0.0 in
14:42 15.2 °F 13.7 °F 1025.6 in WSW 11.3 mph 17.7 mph 91 % 0.0 in
14:47 15.2 °F 13.9 °F 1025.6 in WNW 6.4 mph 17.7 mph 92 % 0.0 in
14:52 15.2 °F 13.7 °F 1025.6 in WSW 6.4 mph 17.7 mph 91 % 0.0 in
14:57 15.2 °F 13.9 °F 1025.6 in WSW 8.0 mph 17.7 mph 92 % 0.0 in
15:02 15.2 °F 13.9 °F 1025.6 in West 4.8 mph 17.7 mph 92 % 0.0 in
15:12 15.3 °F 14.2 °F 1025.6 in West 8.0 mph 17.7 mph 93 % 0.0 in
15:17 15.4 °F 14.3 °F 1025.6 in West 8.0 mph 17.7 mph 93 % 0.0 in
15:22 15.4 °F 14.1 °F 1025.6 in WSW 6.4 mph 16.1 mph 92 % 0.0 in
15:27 15.6 °F 14.5 °F 1025.6 in WSW 6.4 mph 16.1 mph 93 % 0.0 in
15:32 15.6 °F 14.3 °F 1025.3 in West 6.4 mph 16.1 mph 92 % 0.0 in
15:37 15.6 °F 14.1 °F 1025.3 in West 4.8 mph 16.1 mph 91 % 0.0 in
15:42 15.7 °F 14.4 °F 1025.6 in WSW 8.0 mph 14.5 mph 92 % 0.0 in
15:47 15.6 °F 14.1 °F 1025.6 in West 4.8 mph 14.5 mph 91 % 0.0 in
15:52 15.6 °F 14.1 °F 1025.3 in SSW 8.0 mph 14.5 mph 91 % 0.0 in
15:57 15.4 °F 13.9 °F 1025.3 in WSW 9.7 mph 16.1 mph 91 % 0.0 in
16:02 15.5 °F 14.2 °F 1025.6 in SW 11.3 mph 16.1 mph 92 % 0.0 in
16:07 15.6 °F 14.1 °F 1025.6 in West 4.8 mph 17.7 mph 91 % 0.0 in
16:12 15.4 °F 13.9 °F 1025.6 in West 4.8 mph 17.7 mph 91 % 0.0 in
16:17 15.4 °F 13.9 °F 1025.6 in West 8.0 mph 17.7 mph 91 % 0.0 in
16:22 15.5 °F 14.0 °F 1025.6 in West 6.4 mph 16.1 mph 91 % 0.0 in
16:27 15.6 °F 14.1 °F 1025.6 in West 4.8 mph 16.1 mph 91 % 0.0 in
16:32 15.7 °F 14.2 °F 1025.6 in West 14.5 mph 16.1 mph 91 % 0.0 in
16:37 15.7 °F 14.2 °F 1025.6 in WSW 11.3 mph 14.5 mph 91 % 0.0 in
16:42 15.7 °F 14.2 °F 1025.6 in West 8.0 mph 14.5 mph 91 % 0.0 in
16:47 15.7 °F 14.2 °F 1025.6 in WSW 6.4 mph 14.5 mph 91 % 0.0 in
16:52 15.7 °F 14.2 °F 1025.6 in West 11.3 mph 17.7 mph 91 % 0.0 in
16:57 15.7 °F 14.2 °F 1025.6 in West 6.4 mph 17.7 mph 91 % 0.0 in
17:02 15.6 °F 14.3 °F 1025.6 in WNW 6.4 mph 17.7 mph 92 % 0.0 in
17:07 15.6 °F 14.3 °F 1025.6 in West 8.0 mph 14.5 mph 92 % 0.0 in
17:12 15.6 °F 14.3 °F 1025.6 in WSW 4.8 mph 12.9 mph 92 % 0.0 in
17:17 15.6 °F 14.3 °F 1025.6 in West 8.0 mph 12.9 mph 92 % 0.0 in
17:22 15.6 °F 14.5 °F 1025.6 in WSW 4.8 mph 11.3 mph 93 % 0.0 in
17:27 15.7 °F 14.6 °F 1025.6 in WSW 11.3 mph 11.3 mph 93 % 0.0 in
17:32 15.6 °F 14.3 °F 1025.6 in West 9.7 mph 12.9 mph 92 % 0.0 in
17:37 15.6 °F 14.3 °F 1025.6 in West 11.3 mph 14.5 mph 92 % 0.0 in
17:42 15.7 °F 14.6 °F 1025.6 in WSW 6.4 mph 14.5 mph 93 % 0.0 in
17:47 15.7 °F 14.6 °F 1025.6 in WNW 3.2 mph 14.5 mph 93 % 0.0 in
17:52 15.8 °F 14.5 °F 1025.6 in West 4.8 mph 14.5 mph 92 % 0.0 in
17:57 15.9 °F 14.6 °F 1025.6 in West 6.4 mph 12.9 mph 92 % 0.0 in
18:02 16.0 °F 14.5 °F 1025.6 in West 3.2 mph 14.5 mph 91 % 0.0 in
18:07 16.1 °F 14.6 °F 1025.6 in WNW 8.0 mph 14.5 mph 91 % 0.0 in
18:12 16.1 °F 14.6 °F 1025.3 in West 9.7 mph 14.5 mph 91 % 0.0 in
18:17 16.1 °F 14.6 °F 1025.3 in WSW 8.0 mph 14.5 mph 91 % 0.0 in
18:22 16.2 °F 14.7 °F 1025.3 in WNW 4.8 mph 12.9 mph 91 % 0.0 in
18:27 16.3 °F 14.8 °F 1025.3 in West 4.8 mph 12.9 mph 91 % 0.0 in
18:32 16.4 °F 14.9 °F 1025.3 in West 8.0 mph 11.3 mph 91 % 0.0 in
18:42 16.4 °F 14.8 °F 1025.3 in West 3.2 mph 12.9 mph 90 % 0.0 in
18:47 16.4 °F 14.9 °F 1025.3 in West 4.8 mph 12.9 mph 91 % 0.0 in
18:52 16.4 °F 14.9 °F 1025.3 in WSW 9.7 mph 14.5 mph 91 % 0.0 in
18:57 16.4 °F 14.8 °F 1025.3 in West 6.4 mph 14.5 mph 90 % 0.0 in
19:02 16.4 °F 14.9 °F 1025.6 in West 4.8 mph 14.5 mph 91 % 0.0 in
19:07 16.5 °F 15.0 °F 1025.3 in WNW 3.2 mph 12.9 mph 91 % 0.0 in
19:12 16.6 °F 15.0 °F 1025.3 in Calm   11.3 mph 90 % 0.0 in
19:17 16.7 °F 15.1 °F 1025.3 in WSW 3.2 mph 11.3 mph 90 % 0.0 in
19:22 16.8 °F 15.1 °F 1025.3 in WSW 3.2 mph 9.7 mph 90 % 0.0 in
19:27 16.7 °F 14.9 °F 1025.3 in WSW 3.2 mph 11.3 mph 89 % 0.0 in
19:32 16.8 °F 15.1 °F 1025.3 in WSW 6.4 mph 11.3 mph 90 % 0.0 in
19:37 16.8 °F 15.1 °F 1025.3 in West 3.2 mph 12.9 mph 90 % 0.0 in
19:42 16.8 °F 15.0 °F 1025.3 in WSW 3.2 mph 12.9 mph 89 % 0.0 in
19:52 16.8 °F 15.0 °F 1025.3 in SW 1.6 mph 12.9 mph 89 % 0.0 in
19:57 16.9 °F 15.2 °F 1025.3 in SSW 3.2 mph 8.0 mph 90 % 0.0 in
20:02 17.0 °F 15.2 °F 1025.3 in WSW 3.2 mph 8.0 mph 89 % 0.0 in
20:07 17.1 °F 15.3 °F 1025.3 in West 3.2 mph 8.0 mph 89 % 0.0 in
20:12 17.1 °F 15.3 °F 1025.3 in West 3.2 mph 8.0 mph 89 % 0.0 in
20:17 17.1 °F 15.3 °F 1025.3 in SW 1.6 mph 8.0 mph 89 % 0.0 in
20:22 17.2 °F 15.4 °F 1025.3 in SW 3.2 mph 8.0 mph 89 % 0.0 in
20:32 17.1 °F 15.3 °F 1025.3 in West 4.8 mph 4.8 mph 89 % 0.0 in
20:37 17.1 °F 15.3 °F 1025.6 in Calm   6.4 mph 89 % 0.0 in
20:42 17.1 °F 15.3 °F 1025.6 in WNW 1.6 mph 6.4 mph 89 % 0.0 in
20:47 17.1 °F 15.3 °F 1025.6 in SW 3.2 mph 6.4 mph 89 % 0.0 in
20:52 17.1 °F 15.4 °F 1025.6 in SW 3.2 mph 6.4 mph 90 % 0.0 in
20:57 17.0 °F 15.3 °F 1025.6 in WSW 1.6 mph 6.4 mph 90 % 0.0 in
21:02 17.0 °F 15.3 °F 1025.6 in WSW 3.2 mph 6.4 mph 90 % 0.0 in
21:07 16.9 °F 15.2 °F 1025.6 in SW 6.4 mph 8.0 mph 90 % 0.0 in
21:12 16.9 °F 15.2 °F 1025.6 in SW 1.6 mph 8.0 mph 90 % 0.0 in
21:17 16.9 °F 15.2 °F 1025.6 in West 1.6 mph 8.0 mph 90 % 0.0 in
21:22 16.9 °F 15.4 °F 1025.6 in WSW 4.8 mph 8.0 mph 91 % 0.0 in
21:27 16.8 °F 15.3 °F 1025.6 in SW 1.6 mph 6.4 mph 91 % 0.0 in
21:32 16.8 °F 15.3 °F 1025.6 in SW 3.2 mph 6.4 mph 91 % 0.0 in
21:42 16.7 °F 15.4 °F 1026.0 in SW 4.8 mph 6.4 mph 92 % 0.0 in
21:47 16.7 °F 15.4 °F 1026.0 in SW 3.2 mph 6.4 mph 92 % 0.0 in
21:52 16.6 °F 15.3 °F 1026.0 in SW 4.8 mph 6.4 mph 92 % 0.0 in
21:57 16.6 °F 15.3 °F 1026.0 in SW 1.6 mph 6.4 mph 92 % 0.0 in
22:02 16.6 °F 15.3 °F 1026.0 in SW 3.2 mph 4.8 mph 92 % 0.0 in
22:07 16.5 °F 15.2 °F 1026.0 in SSW 3.2 mph 6.4 mph 92 % 0.0 in
22:12 16.4 °F 15.3 °F 1026.0 in SSW 3.2 mph 6.4 mph 93 % 0.0 in
22:17 16.4 °F 15.3 °F 1026.0 in SSW 1.6 mph 6.4 mph 93 % 0.0 in
22:27 16.3 °F 15.2 °F 1026.0 in Calm   4.8 mph 93 % 0.0 in
22:32 16.2 °F 15.2 °F 1026.0 in Calm   3.2 mph 94 % 0.0 in
22:37 16.2 °F 15.2 °F 1026.0 in SSW 1.6 mph 3.2 mph 94 % 0.0 in
22:42 16.2 °F 15.2 °F 1026.0 in SW 1.6 mph 3.2 mph 94 % 0.0 in
22:47 16.1 °F 15.1 °F 1026.0 in SW 1.6 mph 3.2 mph 94 % 0.0 in
22:52 16.1 °F 15.1 °F 1026.0 in SW 1.6 mph 3.2 mph 94 % 0.0 in
22:57 16.1 °F 15.1 °F 1026.3 in SSW 1.6 mph 3.2 mph 94 % 0.0 in
23:02 16.1 °F 15.1 °F 1026.3 in SW 1.6 mph 3.2 mph 94 % 0.0 in
23:12 15.9 °F 15.1 °F 1026.0 in SSW 1.6 mph 4.8 mph 95 % 0.0 in
23:17 15.9 °F 15.1 °F 1026.0 in SW 3.2 mph 4.8 mph 95 % 0.0 in
23:22 15.9 °F 15.1 °F 1026.3 in SSW 1.6 mph 4.8 mph 95 % 0.0 in
23:27 15.9 °F 15.1 °F 1026.0 in SSW 1.6 mph 4.8 mph 95 % 0.0 in
23:32 15.9 °F 15.1 °F 1026.0 in SSW 3.2 mph 4.8 mph 95 % 0.0 in
23:37 15.9 °F 15.1 °F 1026.0 in SW 3.2 mph 6.4 mph 95 % 0.0 in
23:42 15.9 °F 15.3 °F 1026.0 in SSW 4.8 mph 6.4 mph 96 % 0.0 in
23:47 16.0 °F 15.4 °F 1026.0 in SW 6.4 mph 6.4 mph 96 % 0.0 in
23:52 16.0 °F 15.4 °F 1026.0 in SW 4.8 mph 9.7 mph 96 % 0.0 in
23:57 16.0 °F 15.4 °F 1026.0 in SSW 1.6 mph 9.7 mph 96 % 0.0 in
Meteo18
Compliments of Weather Underground - 4 mb

Script developed by  Jim McMurry - jmcmurry@mwt.net Adapted for the template by  Wim van der Kuil - Leuven-Template.eu

You find our weather info also at:

European Weather Network

Weather Underground

Equipment we use:

Weather-station
Davis Vue

Weather-program
Meteobridge

Weather-server
Raspberry PI 2 B+

Provider
1 and 1

Davis Vue

Meteobridge

Raspberry PI 2 B+

1 and 1